createdAt,value
2019-03-18T00:00:34.828Z,0.00
2019-03-18T00:03:06.398Z,0.00
2019-03-18T00:05:36.206Z,0.00
2019-03-18T00:08:09.544Z,0.00
2019-03-18T00:10:39.306Z,0.00
2019-03-18T00:13:09.437Z,0.00
2019-03-18T00:15:39.366Z,0.00
2019-03-18T00:18:09.147Z,0.00
2019-03-18T00:20:39.842Z,0.00
2019-03-18T00:23:09.642Z,0.00
2019-03-18T00:25:40.768Z,0.00
2019-03-18T00:28:10.627Z,0.00
2019-03-18T00:30:44.624Z,0.00
2019-03-18T00:33:15.698Z,0.00
2019-03-18T00:35:45.475Z,0.00
2019-03-18T00:38:19.009Z,0.00
2019-03-18T00:40:48.756Z,0.00
2019-03-18T00:43:18.732Z,0.00
2019-03-18T00:45:48.949Z,0.00
2019-03-18T00:48:21.720Z,0.00
2019-03-18T00:50:52.948Z,0.00
2019-03-18T00:53:27.327Z,0.00
2019-03-18T00:55:59.635Z,0.00
2019-03-18T00:58:29.432Z,0.00
2019-03-18T01:01:00.561Z,0.00
2019-03-18T01:03:30.317Z,0.00
2019-03-18T01:06:03.180Z,0.00
2019-03-18T01:08:34.268Z,0.00
2019-03-18T01:11:03.856Z,0.00
2019-03-18T01:13:33.529Z,0.00
2019-03-18T01:16:04.730Z,0.00
2019-03-18T01:18:36.031Z,0.00
2019-03-18T01:21:06.692Z,0.00
2019-03-18T01:23:36.410Z,0.00
2019-03-18T01:26:08.859Z,0.00
2019-03-18T01:28:38.815Z,0.00
2019-03-18T01:31:08.584Z,0.00
2019-03-18T01:33:38.402Z,0.00
2019-03-18T01:36:08.308Z,0.00
2019-03-18T01:38:38.191Z,0.00
2019-03-18T01:41:07.937Z,0.00
2019-03-18T01:43:37.687Z,0.00
2019-03-18T01:46:07.537Z,0.00
2019-03-18T01:48:37.335Z,0.00
2019-03-18T01:51:07.076Z,0.00
2019-03-18T01:53:36.981Z,0.00
2019-03-18T01:56:06.785Z,0.00
2019-03-18T01:58:38.052Z,0.00
2019-03-18T02:01:09.227Z,0.00
2019-03-18T02:03:40.546Z,0.00
2019-03-18T02:06:11.149Z,0.00
2019-03-18T02:08:40.985Z,100.00
2019-03-18T02:11:11.031Z,100.00
2019-03-18T02:13:40.839Z,0.00
2019-03-18T02:16:10.731Z,0.00
2019-03-18T02:18:40.551Z,100.00
2019-03-18T02:21:10.329Z,100.00
2019-03-18T02:23:40.115Z,100.00
2019-03-18T02:26:09.814Z,100.00
2019-03-18T02:28:39.607Z,100.00
2019-03-18T02:31:09.545Z,100.00
2019-03-18T02:33:39.347Z,100.00
2019-03-18T02:36:09.519Z,100.00
2019-03-18T02:38:39.327Z,100.00
2019-03-18T02:41:09.202Z,100.00
2019-03-18T02:43:38.887Z,100.00
2019-03-18T02:46:10.368Z,100.00
2019-03-18T02:48:40.194Z,100.00
2019-03-18T02:51:09.980Z,100.00
2019-03-18T02:53:39.807Z,100.00
2019-03-18T02:56:09.797Z,100.00
2019-03-18T02:58:39.991Z,100.00
2019-03-18T03:01:09.805Z,100.00
2019-03-18T03:03:39.588Z,100.00
2019-03-18T03:06:09.335Z,100.00
2019-03-18T03:08:39.177Z,100.00
2019-03-18T03:11:08.861Z,100.00
2019-03-18T03:13:38.926Z,100.00
2019-03-18T03:16:08.617Z,100.00
2019-03-18T03:18:39.528Z,100.00
2019-03-18T03:21:09.246Z,100.00
2019-03-18T03:23:39.997Z,100.00
2019-03-18T03:26:10.091Z,100.00
2019-03-18T03:28:39.896Z,100.00
2019-03-18T03:31:09.757Z,100.00
2019-03-18T03:33:42.338Z,100.00
2019-03-18T03:36:12.251Z,100.00
2019-03-18T03:38:44.853Z,100.00
2019-03-18T03:41:17.913Z,100.00
2019-03-18T03:43:46.871Z,100.00
2019-03-18T03:46:16.716Z,100.00
2019-03-18T03:48:48.747Z,100.00
2019-03-18T03:51:20.552Z,100.00
2019-03-18T03:53:51.910Z,100.00
2019-03-18T03:56:21.516Z,100.00
2019-03-18T03:58:51.274Z,100.00
2019-03-18T04:01:21.046Z,100.00
2019-03-18T04:03:54.007Z,100.00
2019-03-18T04:06:24.849Z,100.00
2019-03-18T04:08:54.699Z,100.00
2019-03-18T04:11:24.584Z,100.00
2019-03-18T04:13:55.490Z,100.00
2019-03-18T04:16:25.296Z,100.00
2019-03-18T04:18:55.372Z,100.00
2019-03-18T04:21:25.931Z,100.00
2019-03-18T04:23:55.827Z,100.00
2019-03-18T04:26:25.591Z,100.00
2019-03-18T04:28:55.532Z,100.00
2019-03-18T04:31:25.376Z,100.00
2019-03-18T04:33:56.383Z,100.00
2019-03-18T04:36:26.288Z,100.00
2019-03-18T04:38:56.136Z,100.00
2019-03-18T04:41:25.878Z,100.00
2019-03-18T04:43:55.722Z,100.00
2019-03-18T04:46:25.826Z,100.00
2019-03-18T04:48:55.592Z,100.00
2019-03-18T04:51:25.386Z,100.00
2019-03-18T04:53:58.345Z,100.00
2019-03-18T04:56:28.142Z,100.00
2019-03-18T04:58:59.197Z,100.00
2019-03-18T05:01:30.057Z,100.00
2019-03-18T05:03:59.834Z,100.00
2019-03-18T05:06:29.654Z,100.00
2019-03-18T05:08:59.501Z,100.00
2019-03-18T05:11:29.327Z,100.00
2019-03-18T05:13:59.108Z,100.00
2019-03-18T05:16:28.879Z,100.00
2019-03-18T05:18:58.668Z,100.00
2019-03-18T05:21:28.542Z,100.00
2019-03-18T05:23:58.261Z,100.00
2019-03-18T05:26:28.257Z,100.00
2019-03-18T05:28:58.919Z,100.00
2019-03-18T05:31:28.810Z,100.00
2019-03-18T05:33:58.601Z,100.00
2019-03-18T05:36:28.287Z,100.00
2019-03-18T05:38:58.105Z,100.00
2019-03-18T05:41:28.260Z,100.00
2019-03-18T05:44:00.470Z,100.00
2019-03-18T05:46:31.207Z,100.00
2019-03-18T05:49:00.967Z,100.00
2019-03-18T05:51:30.745Z,100.00
2019-03-18T05:54:00.467Z,100.00
2019-03-18T05:56:30.226Z,0.00
2019-03-18T05:59:02.939Z,100.00
2019-03-18T06:01:33.004Z,100.00
2019-03-18T06:04:02.688Z,100.00
2019-03-18T06:06:32.453Z,100.00
2019-03-18T06:09:02.261Z,100.00
2019-03-18T06:11:32.110Z,100.00
2019-03-18T06:14:01.910Z,100.00
2019-03-18T06:16:31.804Z,100.00
2019-03-18T06:19:01.720Z,100.00
2019-03-18T06:21:32.695Z,100.00
2019-03-18T06:24:02.562Z,100.00
2019-03-18T06:26:33.253Z,100.00
2019-03-18T06:29:03.018Z,100.00
2019-03-18T06:31:33.108Z,100.00
2019-03-18T06:34:02.868Z,100.00
2019-03-18T06:36:32.588Z,100.00
2019-03-18T06:39:02.387Z,100.00
2019-03-18T06:41:32.340Z,100.00
2019-03-18T06:44:02.411Z,100.00
2019-03-18T06:46:33.536Z,100.00
2019-03-18T06:49:03.672Z,100.00
2019-03-18T06:51:35.106Z,100.00
2019-03-18T06:54:05.909Z,100.00
2019-03-18T06:56:35.698Z,100.00
2019-03-18T06:59:05.980Z,100.00
2019-03-18T07:01:35.807Z,100.00
2019-03-18T07:04:06.320Z,100.00
2019-03-18T07:06:36.085Z,100.00
2019-03-18T07:09:06.916Z,100.00
2019-03-18T07:11:36.996Z,100.00
2019-03-18T07:14:06.781Z,100.00
2019-03-18T07:16:36.611Z,100.00
2019-03-18T07:19:06.418Z,100.00
2019-03-18T07:21:36.097Z,100.00
2019-03-18T07:24:06.035Z,100.00
2019-03-18T07:26:35.821Z,100.00
2019-03-18T07:29:05.637Z,100.00
2019-03-18T07:31:35.700Z,100.00
2019-03-18T07:34:08.034Z,100.00
2019-03-18T07:36:37.730Z,100.00
2019-03-18T07:39:07.632Z,100.00
2019-03-18T07:41:38.489Z,100.00
2019-03-18T07:44:08.341Z,100.00
2019-03-18T07:46:38.211Z,100.00
2019-03-18T07:49:08.587Z,100.00
2019-03-18T07:51:38.371Z,100.00
2019-03-18T07:54:08.211Z,100.00
2019-03-18T07:56:38.169Z,100.00
2019-03-18T07:59:07.981Z,100.00
2019-03-18T08:01:37.973Z,100.00
2019-03-18T08:04:07.755Z,100.00
2019-03-18T08:06:38.424Z,100.00
2019-03-18T08:09:11.082Z,100.00
2019-03-18T08:11:41.746Z,100.00
2019-03-18T08:14:11.944Z,100.00
2019-03-18T08:16:42.058Z,100.00
2019-03-18T08:19:11.783Z,100.00
2019-03-18T08:21:41.718Z,100.00
2019-03-18T08:24:11.466Z,100.00
2019-03-18T08:26:41.382Z,100.00
2019-03-18T08:29:11.969Z,100.00
2019-03-18T08:31:41.756Z,100.00
2019-03-18T08:34:11.549Z,100.00
2019-03-18T08:36:41.938Z,100.00
2019-03-18T08:39:12.650Z,100.00
2019-03-18T08:41:43.593Z,100.00
2019-03-18T08:44:13.255Z,100.00
2019-03-18T08:46:43.261Z,100.00
2019-03-18T08:49:13.319Z,100.00
2019-03-18T08:51:43.127Z,100.00
2019-03-18T08:54:13.876Z,100.00
2019-03-18T08:56:44.512Z,100.00
2019-03-18T08:59:15.976Z,100.00
2019-03-18T09:01:45.559Z,100.00
2019-03-18T09:04:15.263Z,100.00
2019-03-18T09:06:45.668Z,100.00
2019-03-18T09:09:16.651Z,100.00
2019-03-18T09:11:46.429Z,100.00
2019-03-18T09:14:16.250Z,100.00
2019-03-18T09:16:50.151Z,100.00
2019-03-18T09:19:19.958Z,100.00
2019-03-18T09:21:49.752Z,100.00
2019-03-18T09:24:19.560Z,100.00
2019-03-18T09:27:01.561Z,100.00
2019-03-18T09:29:21.187Z,100.00
2019-03-18T09:31:50.978Z,100.00
2019-03-18T09:34:20.936Z,100.00
2019-03-18T09:36:51.680Z,100.00
2019-03-18T09:39:21.495Z,100.00
2019-03-18T09:41:51.636Z,100.00
2019-03-18T09:44:21.518Z,100.00
2019-03-18T09:46:51.333Z,100.00
2019-03-18T09:49:22.203Z,100.00
2019-03-18T09:51:53.138Z,100.00
2019-03-18T09:54:22.926Z,100.00
2019-03-18T09:56:52.848Z,100.00
2019-03-18T09:59:22.651Z,100.00
2019-03-18T10:01:54.498Z,100.00
2019-03-18T10:04:24.272Z,100.00
2019-03-18T10:06:54.033Z,100.00
2019-03-18T10:09:25.070Z,100.00
2019-03-18T10:11:55.189Z,100.00
2019-03-18T10:14:25.031Z,100.00
2019-03-18T10:16:54.812Z,100.00
2019-03-18T10:19:33.025Z,100.00
2019-03-18T10:21:56.286Z,100.00
2019-03-18T10:24:26.078Z,100.00
2019-03-18T10:26:56.306Z,100.00
2019-03-18T10:29:26.147Z,100.00
2019-03-18T10:31:56.784Z,100.00
2019-03-18T10:34:26.777Z,100.00
2019-03-18T10:36:56.834Z,100.00
2019-03-18T10:39:26.676Z,100.00
2019-03-18T10:41:56.469Z,100.00
2019-03-18T10:44:26.263Z,100.00
2019-03-18T10:46:56.054Z,100.00
2019-03-18T10:49:25.945Z,100.00
2019-03-18T10:51:55.809Z,100.00
2019-03-18T10:54:30.768Z,100.00
2019-03-18T10:56:56.999Z,100.00
2019-03-18T10:59:26.798Z,100.00
2019-03-18T11:01:56.936Z,100.00
2019-03-18T11:04:26.720Z,100.00
2019-03-18T11:06:56.591Z,100.00
2019-03-18T11:09:26.392Z,100.00
2019-03-18T11:11:56.255Z,100.00
2019-03-18T11:14:26.108Z,100.00
2019-03-18T11:16:55.919Z,100.00
2019-03-18T11:19:25.698Z,100.00
2019-03-18T11:21:55.516Z,100.00
2019-03-18T11:24:25.288Z,100.00
2019-03-18T11:26:55.447Z,100.00
2019-03-18T11:29:25.422Z,100.00
2019-03-18T11:31:55.505Z,100.00
2019-03-18T11:34:25.448Z,100.00
2019-03-18T11:36:55.200Z,100.00
2019-03-18T11:39:24.989Z,100.00
2019-03-18T11:41:54.821Z,100.00
2019-03-18T11:44:24.641Z,100.00
2019-03-18T11:46:54.423Z,100.00
2019-03-18T11:49:24.274Z,100.00
2019-03-18T11:51:55.672Z,100.00
2019-03-18T11:54:25.451Z,100.00
2019-03-18T11:56:55.346Z,100.00
2019-03-18T11:59:24.967Z,100.00
2019-03-18T12:01:54.934Z,100.00
2019-03-18T12:04:24.874Z,100.00
2019-03-18T12:06:54.889Z,100.00
2019-03-18T12:09:24.677Z,100.00
2019-03-18T12:11:54.613Z,100.00
2019-03-18T12:14:24.468Z,100.00
2019-03-18T12:16:54.238Z,100.00
2019-03-18T12:19:24.826Z,100.00
2019-03-18T12:21:54.659Z,100.00
2019-03-18T12:24:24.440Z,100.00
2019-03-18T12:26:54.436Z,100.00
2019-03-18T12:29:24.228Z,100.00
2019-03-18T12:31:54.025Z,100.00
2019-03-18T12:34:23.790Z,0.00
2019-03-18T12:36:53.593Z,0.00
2019-03-18T12:39:24.723Z,0.00
2019-03-18T12:41:54.756Z,0.00
2019-03-18T12:44:24.578Z,0.00
2019-03-18T12:46:54.379Z,0.00
2019-03-18T12:49:24.480Z,0.00
2019-03-18T12:51:54.278Z,0.00
2019-03-18T12:54:24.068Z,0.00
2019-03-18T12:56:56.658Z,100.00
2019-03-18T12:59:26.487Z,100.00
2019-03-18T13:01:56.288Z,100.00
2019-03-18T13:04:26.032Z,0.00
2019-03-18T13:06:56.528Z,0.00
2019-03-18T13:09:26.322Z,0.00
2019-03-18T13:11:55.918Z,0.00
2019-03-18T13:14:25.731Z,0.00
2019-03-18T13:16:55.517Z,0.00
2019-03-18T13:19:28.259Z,0.00
2019-03-18T13:21:58.084Z,0.00
2019-03-18T13:24:27.848Z,0.00
2019-03-18T13:26:58.809Z,100.00
2019-03-18T13:29:29.285Z,0.00
2019-03-18T13:31:58.946Z,0.00
2019-03-18T13:34:28.741Z,0.00
2019-03-18T13:36:58.549Z,0.00
2019-03-18T13:39:28.315Z,0.00
2019-03-18T13:41:58.132Z,0.00
2019-03-18T13:44:31.010Z,0.00
2019-03-18T13:47:00.669Z,0.00
2019-03-18T13:49:30.337Z,0.00
2019-03-18T13:52:00.145Z,0.00
2019-03-18T13:54:32.248Z,0.00
2019-03-18T13:57:01.567Z,0.00
2019-03-18T13:59:31.429Z,0.00
2019-03-18T14:02:01.168Z,0.00
2019-03-18T14:04:33.687Z,0.00
2019-03-18T14:07:03.449Z,0.00
2019-03-18T14:09:33.117Z,0.00
2019-03-18T14:12:02.917Z,0.00
2019-03-18T14:14:32.691Z,0.00
2019-03-18T14:17:02.575Z,0.00
2019-03-18T14:19:32.351Z,0.00
2019-03-18T14:22:02.940Z,0.00
2019-03-18T14:24:32.721Z,0.00
2019-03-18T14:27:02.481Z,0.00
2019-03-18T14:29:34.018Z,0.00
2019-03-18T14:32:03.812Z,0.00
2019-03-18T14:34:34.417Z,0.00
2019-03-18T14:37:04.240Z,0.00
2019-03-18T14:39:35.178Z,0.00
2019-03-18T14:42:05.917Z,100.00
2019-03-18T14:44:35.848Z,0.00
2019-03-18T14:47:05.837Z,100.00
2019-03-18T14:49:35.594Z,100.00
2019-03-18T14:52:06.793Z,100.00
2019-03-18T14:54:36.595Z,100.00
2019-03-18T14:57:06.415Z,100.00
2019-03-18T14:59:36.282Z,100.00
2019-03-18T15:02:06.111Z,100.00
2019-03-18T15:04:35.931Z,100.00
2019-03-18T15:07:05.742Z,100.00
2019-03-18T15:09:35.532Z,100.00
2019-03-18T15:12:05.372Z,100.00
2019-03-18T15:14:35.214Z,100.00
2019-03-18T15:17:04.989Z,100.00
2019-03-18T15:19:35.026Z,100.00
2019-03-18T15:22:05.065Z,100.00
2019-03-18T15:24:35.027Z,100.00
2019-03-18T15:27:04.827Z,100.00
2019-03-18T15:29:35.327Z,100.00
2019-03-18T15:32:05.140Z,100.00
2019-03-18T15:34:36.191Z,100.00
2019-03-18T15:37:06.059Z,100.00
2019-03-18T15:39:35.904Z,100.00
2019-03-18T15:42:05.747Z,100.00
2019-03-18T15:44:35.622Z,100.00
2019-03-18T15:47:05.639Z,100.00
2019-03-18T15:49:35.446Z,100.00
2019-03-18T15:52:10.926Z,100.00
2019-03-18T15:54:36.869Z,100.00
2019-03-18T15:57:06.683Z,100.00
2019-03-18T15:59:36.592Z,100.00
2019-03-18T16:02:06.527Z,100.00
2019-03-18T16:04:36.508Z,100.00
2019-03-18T16:07:06.379Z,100.00
2019-03-18T16:09:36.286Z,100.00
2019-03-18T16:12:06.082Z,100.00
2019-03-18T16:14:35.918Z,100.00
2019-03-18T16:17:05.736Z,100.00
2019-03-18T16:19:35.547Z,100.00
2019-03-18T16:22:05.397Z,100.00
2019-03-18T16:24:35.201Z,100.00
2019-03-18T16:27:05.127Z,100.00
2019-03-18T16:29:35.010Z,100.00
2019-03-18T16:32:11.212Z,100.00
2019-03-18T16:34:36.325Z,100.00
2019-03-18T16:37:06.182Z,100.00
2019-03-18T16:39:36.129Z,100.00
2019-03-18T16:42:05.961Z,100.00
2019-03-18T16:44:35.826Z,100.00
2019-03-18T16:47:05.650Z,100.00
2019-03-18T16:49:35.477Z,100.00
2019-03-18T16:52:05.334Z,100.00
2019-03-18T16:54:35.159Z,100.00
2019-03-18T16:57:05.215Z,100.00
2019-03-18T16:59:36.055Z,100.00
2019-03-18T17:02:06.228Z,100.00
2019-03-18T17:04:36.018Z,100.00
2019-03-18T17:07:05.849Z,100.00
2019-03-18T17:09:35.664Z,100.00
2019-03-18T17:12:05.479Z,100.00
2019-03-18T17:14:35.285Z,100.00
2019-03-18T17:17:05.082Z,100.00
2019-03-18T17:19:34.865Z,100.00
2019-03-18T17:22:04.745Z,100.00
2019-03-18T17:24:34.553Z,100.00
2019-03-18T17:27:04.409Z,100.00
2019-03-18T17:29:34.234Z,100.00
2019-03-18T17:32:04.048Z,100.00
2019-03-18T17:34:34.937Z,100.00
2019-03-18T17:37:04.778Z,100.00
2019-03-18T17:39:36.218Z,100.00
2019-03-18T17:42:06.118Z,100.00
2019-03-18T17:44:36.568Z,100.00
2019-03-18T17:47:07.558Z,100.00
2019-03-18T17:49:37.776Z,100.00
2019-03-18T17:52:07.630Z,100.00
2019-03-18T17:54:37.429Z,100.00
2019-03-18T17:57:07.913Z,100.00
2019-03-18T17:59:39.130Z,100.00
2019-03-18T18:02:12.907Z,100.00
2019-03-18T18:04:42.827Z,100.00
2019-03-18T18:07:12.707Z,100.00
2019-03-18T18:09:42.453Z,100.00
2019-03-18T18:12:12.190Z,100.00
2019-03-18T18:14:41.978Z,100.00
2019-03-18T18:17:11.708Z,100.00
2019-03-18T18:19:41.492Z,100.00
2019-03-18T18:22:11.366Z,100.00
2019-03-18T18:24:41.158Z,100.00
2019-03-18T18:27:10.933Z,100.00
2019-03-18T18:29:40.783Z,100.00
2019-03-18T18:32:10.669Z,100.00
2019-03-18T18:34:40.475Z,100.00
2019-03-18T18:37:10.375Z,100.00
2019-03-18T18:39:40.135Z,100.00
2019-03-18T18:42:09.939Z,100.00
2019-03-18T18:44:39.766Z,100.00
2019-03-18T18:47:09.563Z,100.00
2019-03-18T18:49:39.395Z,100.00
2019-03-18T18:52:11.793Z,100.00
2019-03-18T18:54:41.558Z,100.00
2019-03-18T18:57:12.103Z,100.00
2019-03-18T18:59:42.095Z,100.00
2019-03-18T19:02:11.967Z,100.00
2019-03-18T19:04:42.638Z,100.00
2019-03-18T19:07:13.420Z,100.00
2019-03-18T19:09:43.178Z,100.00
2019-03-18T19:12:13.338Z,100.00
2019-03-18T19:14:43.121Z,100.00
2019-03-18T19:17:13.919Z,100.00
2019-03-18T19:19:43.740Z,100.00
2019-03-18T19:22:13.565Z,100.00
2019-03-18T19:24:43.538Z,100.00
2019-03-18T19:27:13.294Z,100.00
2019-03-18T19:29:43.132Z,100.00
2019-03-18T19:32:12.980Z,100.00
2019-03-18T19:34:42.799Z,100.00
2019-03-18T19:37:12.822Z,100.00
2019-03-18T19:39:42.620Z,100.00
2019-03-18T19:42:12.421Z,100.00
2019-03-18T19:44:42.239Z,100.00
2019-03-18T19:47:12.039Z,100.00
2019-03-18T19:49:41.834Z,100.00
2019-03-18T19:52:11.602Z,100.00
2019-03-18T19:54:41.375Z,100.00
2019-03-18T19:57:11.199Z,100.00
2019-03-18T19:59:41.038Z,100.00
2019-03-18T20:02:10.897Z,100.00
2019-03-18T20:04:41.023Z,100.00
2019-03-18T20:07:10.849Z,100.00
2019-03-18T20:09:40.672Z,100.00
2019-03-18T20:12:12.037Z,100.00
2019-03-18T20:14:41.844Z,100.00
2019-03-18T20:17:11.656Z,100.00
2019-03-18T20:19:41.472Z,100.00
2019-03-18T20:22:11.353Z,100.00
2019-03-18T20:24:41.219Z,100.00
2019-03-18T20:27:11.026Z,100.00
2019-03-18T20:29:42.499Z,100.00
2019-03-18T20:32:12.431Z,100.00
2019-03-18T20:34:43.771Z,100.00
2019-03-18T20:37:13.667Z,100.00
2019-03-18T20:39:43.457Z,100.00
2019-03-18T20:42:13.266Z,100.00
2019-03-18T20:44:43.248Z,100.00
2019-03-18T20:47:13.017Z,100.00
2019-03-18T20:49:42.797Z,100.00
2019-03-18T20:52:16.985Z,100.00
2019-03-18T20:54:45.708Z,100.00
2019-03-18T20:57:15.517Z,100.00
2019-03-18T20:59:45.376Z,100.00
2019-03-18T21:02:15.238Z,100.00
2019-03-18T21:04:45.060Z,100.00
2019-03-18T21:07:17.066Z,100.00
2019-03-18T21:09:46.332Z,100.00
2019-03-18T21:12:16.093Z,100.00
2019-03-18T21:14:45.891Z,100.00
2019-03-18T21:17:17.133Z,100.00
2019-03-18T21:19:46.890Z,100.00
2019-03-18T21:22:16.689Z,100.00
2019-03-18T21:24:46.465Z,100.00
2019-03-18T21:27:16.293Z,100.00
2019-03-18T21:29:46.145Z,100.00
2019-03-18T21:32:15.947Z,100.00
2019-03-18T21:34:45.767Z,100.00
2019-03-18T21:37:15.568Z,100.00
2019-03-18T21:39:45.346Z,100.00
2019-03-18T21:42:15.125Z,100.00
2019-03-18T21:44:45.011Z,100.00
2019-03-18T21:47:14.868Z,100.00
2019-03-18T21:49:44.687Z,100.00
2019-03-18T21:52:16.681Z,100.00
2019-03-18T21:54:45.926Z,100.00
2019-03-18T21:57:15.707Z,100.00
2019-03-18T21:59:45.599Z,100.00
2019-03-18T22:02:15.367Z,100.00
2019-03-18T22:04:45.169Z,100.00
2019-03-18T22:07:15.028Z,100.00
2019-03-18T22:09:44.832Z,100.00
2019-03-18T22:12:14.785Z,100.00
2019-03-18T22:14:44.625Z,95.04
2019-03-18T22:17:14.367Z,96.10
2019-03-18T22:19:44.125Z,96.91
2019-03-18T22:22:13.947Z,96.91
2019-03-18T22:24:45.604Z,96.61
2019-03-18T22:27:15.219Z,100.00
2019-03-18T22:29:45.074Z,96.61
2019-03-18T22:32:14.827Z,96.23
2019-03-18T22:34:44.594Z,94.11
2019-03-18T22:37:14.394Z,97.36
2019-03-18T22:39:44.194Z,94.91
2019-03-18T22:42:13.956Z,88.98
2019-03-18T22:44:43.787Z,82.17
2019-03-18T22:47:13.611Z,73.81
2019-03-18T22:49:43.376Z,69.45
2019-03-18T22:52:13.337Z,68.02
2019-03-18T22:54:43.991Z,67.14
2019-03-18T22:57:13.776Z,68.32
2019-03-18T22:59:43.576Z,70.38
2019-03-18T23:02:13.452Z,68.82
2019-03-18T23:04:43.218Z,65.89
2019-03-18T23:07:13.079Z,60.48
2019-03-18T23:09:42.858Z,58.80
2019-03-18T23:12:12.632Z,62.35
2019-03-18T23:14:42.476Z,60.36
2019-03-18T23:17:12.270Z,59.67
2019-03-18T23:19:42.054Z,60.36
2019-03-18T23:22:11.871Z,54.14
2019-03-18T23:24:43.480Z,56.00
2019-03-18T23:27:13.357Z,54.14
2019-03-18T23:29:43.197Z,57.25
2019-03-18T23:32:12.972Z,57.25
2019-03-18T23:34:42.759Z,61.10
2019-03-18T23:37:12.572Z,59.55
2019-03-18T23:39:42.377Z,55.70
2019-03-18T23:42:12.136Z,56.75
2019-03-18T23:44:42.260Z,56.32
2019-03-18T23:47:12.078Z,55.20
2019-03-18T23:49:41.964Z,54.14
2019-03-18T23:52:11.806Z,49.97
2019-03-18T23:54:41.607Z,49.97
2019-03-18T23:57:11.417Z,49.97
2019-03-18T23:59:41.208Z,42.29
